createdAt,value
2023-02-25T00:02:04.117Z,96063.39
2023-02-25T00:05:08.026Z,96060.56
2023-02-25T00:08:11.335Z,96061.38
2023-02-25T00:11:16.256Z,96064.44
2023-02-25T00:14:19.441Z,96067.11
2023-02-25T00:17:23.378Z,96060.10
2023-02-25T00:20:26.789Z,96052.19
2023-02-25T00:23:30.014Z,96043.89
2023-02-25T00:26:33.294Z,96038.24
2023-02-25T00:29:36.638Z,96039.54
2023-02-25T00:32:39.928Z,96040.85
2023-02-25T00:35:43.135Z,96034.98
2023-02-25T00:38:51.528Z,96023.09
2023-02-25T00:41:54.764Z,96020.48
2023-02-25T00:44:58.247Z,96025.59
2023-02-25T00:48:01.940Z,96029.45
2023-02-25T00:51:11.300Z,96025.59
2023-02-25T00:54:14.471Z,96021.14
2023-02-25T00:57:17.806Z,96008.63
2023-02-25T01:00:21.080Z,96002.58
2023-02-25T01:03:24.992Z,95994.07
2023-02-25T01:06:30.246Z,95989.48
2023-02-25T01:09:33.937Z,95994.81
2023-02-25T01:12:37.778Z,95985.27
2023-02-25T01:15:41.121Z,95981.66
2023-02-25T01:18:45.092Z,95979.42
2023-02-25T01:21:51.762Z,95977.36
2023-02-25T01:24:55.992Z,95972.71
2023-02-25T01:27:59.330Z,95980.30
2023-02-25T01:31:02.715Z,95973.30
2023-02-25T01:34:08.417Z,95968.25
2023-02-25T01:37:11.756Z,95968.73
2023-02-25T01:40:18.420Z,95974.96
2023-02-25T01:43:21.662Z,95973.27
2023-02-25T01:46:25.289Z,95964.54
2023-02-25T01:50:00.495Z,95957.06
2023-02-25T01:53:05.032Z,95952.54
2023-02-25T01:56:12.228Z,95956.45
2023-02-25T01:59:18.600Z,95959.26
2023-02-25T02:02:24.600Z,95958.45
2023-02-25T02:06:02.767Z,95951.81
2023-02-25T02:09:10.145Z,95942.75
2023-02-25T02:12:13.356Z,95942.29
2023-02-25T02:15:16.635Z,95946.13
2023-02-25T02:18:21.448Z,95946.54
2023-02-25T02:22:18.852Z,95942.04
2023-02-25T02:25:43.212Z,95946.70
2023-02-25T02:28:52.141Z,95939.00
2023-02-25T02:32:01.616Z,95947.00
2023-02-25T02:35:36.808Z,95956.89
2023-02-25T02:38:48.547Z,95948.85
2023-02-25T02:42:14.311Z,95961.63
2023-02-25T02:45:29.308Z,95964.02
2023-02-25T02:48:52.388Z,95968.46
2023-02-25T02:52:05.341Z,95968.52
2023-02-25T02:55:22.227Z,95975.23
2023-02-25T02:58:43.273Z,95971.77
2023-02-25T03:01:54.855Z,95967.67
2023-02-25T03:05:04.055Z,95977.51
2023-02-25T03:08:14.744Z,95981.88
2023-02-25T03:11:18.101Z,95979.29
2023-02-25T03:14:22.228Z,95991.13
2023-02-25T03:17:33.360Z,95992.77
2023-02-25T03:20:42.647Z,95993.59
2023-02-25T03:23:48.223Z,95998.30
2023-02-25T03:26:52.733Z,95995.00
2023-02-25T03:30:05.924Z,95994.61
2023-02-25T03:33:27.139Z,95999.77
2023-02-25T03:36:54.554Z,96007.23
2023-02-25T03:40:02.481Z,96000.14
2023-02-25T03:43:18.588Z,95998.98
2023-02-25T03:46:22.917Z,95998.86
2023-02-25T03:49:33.015Z,95997.57
2023-02-25T03:52:36.671Z,96004.31
2023-02-25T03:55:42.453Z,96003.23
2023-02-25T03:58:45.735Z,96004.04
2023-02-25T04:01:51.358Z,96000.27
2023-02-25T04:04:54.662Z,95995.09
2023-02-25T04:07:59.249Z,95995.58
2023-02-25T04:11:05.797Z,95994.28
2023-02-25T04:14:09.170Z,95993.05
2023-02-25T04:17:12.578Z,95994.63
2023-02-25T04:20:17.411Z,95991.53
2023-02-25T04:23:20.674Z,95989.02
2023-02-25T04:26:24.562Z,95986.41
2023-02-25T04:29:28.861Z,95986.68
2023-02-25T04:32:32.274Z,95986.60
2023-02-25T04:35:35.450Z,95986.77
2023-02-25T04:38:38.641Z,95976.48
2023-02-25T04:41:41.999Z,95975.90
2023-02-25T04:44:45.186Z,95972.77
2023-02-25T04:47:48.398Z,95980.48
2023-02-25T04:50:51.704Z,95977.60
2023-02-25T04:53:55.004Z,95975.72
2023-02-25T04:56:58.192Z,95974.77
2023-02-25T05:00:01.445Z,95970.63
2023-02-25T05:03:04.683Z,95974.58
2023-02-25T05:06:08.566Z,95971.46
2023-02-25T05:09:11.898Z,95973.95
2023-02-25T05:12:15.177Z,95980.32
2023-02-25T05:15:18.441Z,95979.80
2023-02-25T05:18:23.824Z,95976.05
2023-02-25T05:21:27.247Z,95977.34
2023-02-25T05:24:30.423Z,95979.02
2023-02-25T05:27:34.645Z,95978.11
2023-02-25T05:30:39.640Z,95978.39
2023-02-25T05:33:43.543Z,95983.34
2023-02-25T05:36:46.881Z,95988.98
2023-02-25T05:39:50.130Z,95992.23
2023-02-25T05:42:53.314Z,96004.63
2023-02-25T05:45:58.569Z,96007.69
2023-02-25T05:49:02.011Z,96014.19
2023-02-25T05:52:05.203Z,96015.73
2023-02-25T05:55:09.560Z,96017.48
2023-02-25T05:58:13.345Z,96016.37
2023-02-25T06:01:19.357Z,96015.54
2023-02-25T06:04:22.714Z,96018.08
2023-02-25T06:07:25.928Z,96012.67
2023-02-25T06:10:29.128Z,96015.15
2023-02-25T06:13:32.543Z,96017.39
2023-02-25T06:16:38.016Z,96017.81
2023-02-25T06:19:41.228Z,96018.00
2023-02-25T06:22:44.431Z,96019.91
2023-02-25T06:25:47.629Z,96017.46
2023-02-25T06:28:50.818Z,96021.68
2023-02-25T06:31:55.224Z,96020.83
2023-02-25T06:34:58.656Z,96024.39
2023-02-25T06:38:01.983Z,96023.27
2023-02-25T06:41:10.814Z,96028.48
2023-02-25T06:44:15.782Z,96026.28
2023-02-25T06:47:19.148Z,96029.88
2023-02-25T06:50:22.395Z,96028.61
2023-02-25T06:53:25.757Z,96025.80
2023-02-25T06:56:30.298Z,96020.01
2023-02-25T06:59:50.638Z,96023.83
2023-02-25T07:02:53.830Z,96029.23
2023-02-25T07:05:57.106Z,96024.05
2023-02-25T07:09:00.412Z,96026.36
2023-02-25T07:12:03.795Z,96020.33
2023-02-25T07:15:08.097Z,96020.15
2023-02-25T07:18:11.297Z,96020.52
2023-02-25T07:21:16.004Z,96022.34
2023-02-25T07:24:19.327Z,96027.24
2023-02-25T07:27:22.986Z,96025.05
2023-02-25T07:30:26.213Z,96023.19
2023-02-25T07:33:30.638Z,96023.63
2023-02-25T07:36:37.566Z,96021.05
2023-02-25T07:39:40.812Z,96020.56
2023-02-25T07:42:44.108Z,96019.70
2023-02-25T07:45:50.261Z,96017.75
2023-02-25T07:48:53.719Z,96026.02
2023-02-25T07:51:57.000Z,96030.55
2023-02-25T07:55:00.226Z,96034.72
2023-02-25T07:58:05.287Z,96034.75
2023-02-25T08:01:19.233Z,96040.38
2023-02-25T08:04:22.684Z,96039.68
2023-02-25T08:07:26.725Z,96044.73
2023-02-25T08:10:31.954Z,96042.48
2023-02-25T08:13:35.847Z,96044.48
2023-02-25T08:16:39.300Z,96032.44
2023-02-25T08:19:43.330Z,96035.64
2023-02-25T08:22:46.587Z,96026.54
2023-02-25T08:25:56.598Z,96028.05
2023-02-25T08:29:00.172Z,96025.73
2023-02-25T08:32:06.534Z,96023.74
2023-02-25T08:35:10.275Z,96021.81
2023-02-25T08:38:13.537Z,96031.69
2023-02-25T08:41:18.421Z,96029.88
2023-02-25T08:44:21.653Z,96026.70
2023-02-25T08:47:25.062Z,96027.25
2023-02-25T08:50:29.842Z,96029.02
2023-02-25T08:53:33.328Z,96026.98
2023-02-25T08:56:37.184Z,96029.70
2023-02-25T08:59:41.077Z,96031.88
2023-02-25T09:02:44.992Z,96035.45
2023-02-25T09:05:53.305Z,96037.61
2023-02-25T09:08:57.029Z,96034.36
2023-02-25T09:12:00.851Z,96032.96
2023-02-25T09:15:04.852Z,96034.77
2023-02-25T09:18:08.106Z,96032.09
2023-02-25T09:21:12.654Z,96034.70
2023-02-25T09:24:17.077Z,96030.90
2023-02-25T09:27:20.302Z,96030.23
2023-02-25T09:30:23.582Z,96030.64
2023-02-25T09:33:27.037Z,96023.45
2023-02-25T09:36:31.405Z,96029.06
2023-02-25T09:39:34.594Z,96026.30
2023-02-25T09:43:26.232Z,96025.83
2023-02-25T09:46:31.159Z,96023.65
2023-02-25T09:49:41.277Z,96032.56
2023-02-25T09:53:15.286Z,96032.05
2023-02-25T09:56:19.712Z,96025.69
2023-02-25T09:59:23.034Z,96035.94
2023-02-25T10:02:47.480Z,96034.77
2023-02-25T10:06:07.630Z,96036.14
2023-02-25T10:09:38.273Z,96040.14
2023-02-25T10:12:50.797Z,96051.30
2023-02-25T10:16:09.915Z,96051.39
2023-02-25T10:19:18.944Z,96052.10
2023-02-25T10:22:52.978Z,96049.30
2023-02-25T10:26:03.504Z,96050.43
2023-02-25T10:29:12.755Z,96051.19
2023-02-25T10:32:35.227Z,96053.33
2023-02-25T10:35:43.095Z,96052.15
2023-02-25T10:38:52.560Z,96057.27
2023-02-25T10:41:56.335Z,96061.30
2023-02-25T10:45:12.345Z,96060.89
2023-02-25T10:48:25.970Z,96070.33
2023-02-25T10:51:29.977Z,96070.56
2023-02-25T10:54:44.514Z,96074.85
2023-02-25T10:57:48.129Z,96070.19
2023-02-25T11:01:01.592Z,96070.63
2023-02-25T11:04:11.054Z,96069.70
2023-02-25T11:07:42.156Z,96059.27
2023-02-25T11:11:04.207Z,96068.13
2023-02-25T11:14:34.315Z,96083.85
2023-02-25T11:17:53.331Z,96089.30
2023-02-25T11:20:59.778Z,96092.70
2023-02-25T11:24:13.145Z,96090.04
2023-02-25T11:27:41.300Z,96088.06
2023-02-25T11:30:45.308Z,96084.09
2023-02-25T11:34:03.802Z,96073.80
2023-02-25T11:40:45.062Z,96069.75
2023-02-25T11:43:49.558Z,96077.86
2023-02-25T11:47:01.372Z,96080.11
2023-02-25T11:50:18.023Z,96080.70
2023-02-25T11:53:42.842Z,96094.11
2023-02-25T11:57:13.901Z,96102.38
2023-02-25T12:00:25.659Z,96121.17
2023-02-25T12:03:46.325Z,96117.11
2023-02-25T12:07:07.310Z,96115.52
2023-02-25T12:10:32.308Z,96117.45
2023-02-25T12:14:08.528Z,96119.90
2023-02-25T12:17:43.406Z,96118.40
2023-02-25T12:21:27.890Z,96120.60
2023-02-25T12:24:39.055Z,96119.36
2023-02-25T12:28:07.785Z,96117.23
2023-02-25T12:31:32.856Z,96116.11
2023-02-25T12:35:15.465Z,96118.80
2023-02-25T12:38:46.117Z,96119.89
2023-02-25T12:42:13.504Z,96119.58
2023-02-25T12:45:32.262Z,96118.17
2023-02-25T12:48:50.973Z,96125.91
2023-02-25T12:52:09.588Z,96125.24
2023-02-25T12:55:25.798Z,96122.53
2023-02-25T12:58:50.248Z,96123.60
2023-02-25T13:02:15.001Z,96130.16
2023-02-25T13:05:18.618Z,96141.88
2023-02-25T13:08:38.394Z,96145.12
2023-02-25T13:12:11.219Z,96149.98
2023-02-25T13:15:33.121Z,96149.14
2023-02-25T13:19:04.041Z,96148.52
2023-02-25T13:22:31.859Z,96156.20
2023-02-25T13:26:02.985Z,96145.76
2023-02-25T13:29:12.237Z,96143.94
2023-02-25T13:32:45.797Z,96145.90
2023-02-25T13:36:19.733Z,96159.87
2023-02-25T13:39:48.126Z,96158.78
2023-02-25T13:43:06.054Z,96168.34
2023-02-25T13:46:37.434Z,96174.16
2023-02-25T13:49:49.860Z,96186.75
2023-02-25T13:53:50.634Z,96190.43
2023-02-25T13:57:35.063Z,96198.42
2023-02-25T14:01:17.128Z,96229.83
2023-02-25T14:04:35.322Z,96245.05
2023-02-25T14:07:38.555Z,96252.89
2023-02-25T14:11:23.340Z,96247.23
2023-02-25T14:14:48.384Z,96235.36
2023-02-25T14:17:54.634Z,96237.23
2023-02-25T14:21:32.350Z,96236.98
2023-02-25T14:24:56.854Z,96235.96
2023-02-25T14:28:26.905Z,96233.66
2023-02-25T14:31:54.201Z,96235.52
2023-02-25T14:35:28.312Z,96243.80
2023-02-25T14:39:06.857Z,96247.73
2023-02-25T14:42:21.973Z,96259.33
2023-02-25T14:45:51.231Z,96262.02
2023-02-25T14:49:21.475Z,96271.50
2023-02-25T14:52:27.438Z,96272.27
2023-02-25T14:55:51.006Z,96281.89
2023-02-25T14:59:12.082Z,96284.17
2023-02-25T15:02:24.084Z,96286.46
2023-02-25T15:05:37.127Z,96286.34
2023-02-25T15:08:52.016Z,96289.48
2023-02-25T15:11:57.817Z,96298.20
2023-02-25T15:15:09.783Z,96303.47
2023-02-25T15:18:16.118Z,96309.06
2023-02-25T15:21:31.505Z,96314.73
2023-02-25T15:24:41.684Z,96314.36
2023-02-25T15:27:50.864Z,96316.68
2023-02-25T15:31:00.492Z,96320.27
2023-02-25T15:34:22.899Z,96326.79
2023-02-25T15:37:28.896Z,96332.02
2023-02-25T15:40:32.026Z,96338.88
2023-02-25T15:43:38.042Z,96338.97
2023-02-25T15:46:42.548Z,96342.59
2023-02-25T15:49:49.832Z,96351.30
2023-02-25T15:52:57.059Z,96359.06
2023-02-25T15:56:24.613Z,96365.38
2023-02-25T15:59:52.835Z,96365.55
2023-02-25T16:03:01.659Z,96370.77
2023-02-25T16:06:19.157Z,96372.17
2023-02-25T16:09:23.525Z,96374.36
2023-02-25T16:12:27.303Z,96377.64
2023-02-25T16:15:37.175Z,96378.76
2023-02-25T16:18:45.472Z,96389.20
2023-02-25T16:21:54.029Z,96390.23
2023-02-25T16:24:59.396Z,96392.49
2023-02-25T16:28:33.708Z,96396.39
2023-02-25T16:31:50.601Z,96402.07
2023-02-25T16:35:13.905Z,96406.66
2023-02-25T16:38:20.175Z,96412.16
2023-02-25T16:41:30.286Z,96416.66
2023-02-25T16:44:42.097Z,96421.55
2023-02-25T16:47:59.351Z,96423.90
2023-02-25T16:51:10.415Z,96425.75
2023-02-25T16:54:25.085Z,96428.71
2023-02-25T16:57:28.430Z,96435.55
2023-02-25T17:00:31.925Z,96439.35
2023-02-25T17:03:46.482Z,96445.41
2023-02-25T17:07:11.215Z,96447.90
2023-02-25T17:10:25.194Z,96455.14
2023-02-25T17:13:34.276Z,96458.08
2023-02-25T17:16:41.349Z,96465.69
2023-02-25T17:19:44.763Z,96475.16
2023-02-25T17:22:48.032Z,96473.84
2023-02-25T17:25:52.720Z,96482.44
2023-02-25T17:28:59.189Z,96480.74
2023-02-25T17:32:14.204Z,96479.57
2023-02-25T17:35:17.643Z,96479.86
2023-02-25T17:38:23.745Z,96480.02
2023-02-25T17:41:27.598Z,96488.41
2023-02-25T17:44:36.734Z,96485.94
2023-02-25T17:47:43.917Z,96492.61
2023-02-25T17:51:13.826Z,96500.22
2023-02-25T17:54:20.986Z,96505.42
2023-02-25T17:57:26.593Z,96509.52
2023-02-25T18:00:35.778Z,96517.68
2023-02-25T18:03:45.187Z,96520.39
2023-02-25T18:06:48.595Z,96521.57
2023-02-25T18:09:51.881Z,96529.09
2023-02-25T18:12:56.076Z,96529.33
2023-02-25T18:16:22.894Z,96534.52
2023-02-25T18:19:29.283Z,96545.26
2023-02-25T18:22:34.878Z,96549.13
2023-02-25T18:25:40.897Z,96556.20
2023-02-25T18:28:45.873Z,96559.16
2023-02-25T18:31:49.181Z,96565.52
2023-02-25T18:34:52.823Z,96569.72
2023-02-25T18:37:57.991Z,96576.55
2023-02-25T18:41:02.840Z,96578.33
2023-02-25T18:44:15.887Z,96582.67
2023-02-25T18:47:19.138Z,96594.55
2023-02-25T18:50:25.562Z,96591.45
2023-02-25T18:53:29.158Z,96601.70
2023-02-25T18:57:17.078Z,96603.71
2023-02-25T19:00:22.717Z,96614.13
2023-02-25T19:07:29.298Z,96620.55
2023-02-25T19:10:34.205Z,96625.06
2023-02-25T19:13:43.230Z,96632.21
2023-02-25T19:16:49.251Z,96635.01
2023-02-25T19:19:52.949Z,96638.43
2023-02-25T19:22:59.134Z,96642.61
2023-02-25T19:26:05.997Z,96649.06
2023-02-25T19:29:15.947Z,96656.52
2023-02-25T19:32:20.584Z,96660.99
2023-02-25T19:35:33.139Z,96668.38
2023-02-25T19:38:37.314Z,96673.10
2023-02-25T19:41:40.532Z,96675.66
2023-02-25T19:44:43.763Z,96682.34
2023-02-25T19:47:48.510Z,96685.52
2023-02-25T19:50:54.029Z,96686.38
2023-02-25T19:53:59.832Z,96688.77
2023-02-25T19:57:03.098Z,96686.99
2023-02-25T20:00:09.049Z,96688.78
2023-02-25T20:03:15.811Z,96691.18
2023-02-25T20:06:20.308Z,96695.11
2023-02-25T20:09:23.554Z,96696.90
2023-02-25T20:12:27.171Z,96702.16
2023-02-25T20:15:30.393Z,96705.73
2023-02-25T20:18:33.654Z,96708.13
2023-02-25T20:21:37.017Z,96711.84
2023-02-25T20:24:40.245Z,96717.20
2023-02-25T20:27:43.902Z,96716.19
2023-02-25T20:30:47.296Z,96718.20
2023-02-25T20:33:56.671Z,96719.35
2023-02-25T20:37:11.207Z,96718.56
2023-02-25T20:40:14.537Z,96720.58
2023-02-25T20:43:18.003Z,96725.70
2023-02-25T20:46:26.279Z,96732.20
2023-02-25T20:49:29.759Z,96737.73
2023-02-25T20:52:33.400Z,96742.36
2023-02-25T20:55:37.161Z,96747.16
2023-02-25T20:58:40.889Z,96749.64
2023-02-25T21:01:44.717Z,96746.86
2023-02-25T21:04:48.099Z,96754.45
2023-02-25T21:07:51.988Z,96758.46
2023-02-25T21:10:58.290Z,96768.70
2023-02-25T21:14:01.597Z,96777.06
2023-02-25T21:17:09.540Z,96777.69
2023-02-25T21:20:13.445Z,96782.73
2023-02-25T21:23:16.615Z,96781.57
2023-02-25T21:26:19.853Z,96788.26
2023-02-25T21:29:23.053Z,96789.31
2023-02-25T21:32:26.323Z,96796.35
2023-02-25T21:35:29.516Z,96796.81
2023-02-25T21:38:33.141Z,96804.21
2023-02-25T21:41:38.108Z,96801.88
2023-02-25T21:44:41.444Z,96806.75
2023-02-25T21:47:44.661Z,96808.08
2023-02-25T21:50:48.018Z,96805.83
2023-02-25T21:53:55.912Z,96804.58
2023-02-25T21:56:59.183Z,96805.73
2023-02-25T22:00:02.468Z,96806.57
2023-02-25T22:03:15.630Z,96817.27
2023-02-25T22:06:25.315Z,96825.00
2023-02-25T22:09:28.725Z,96828.48
2023-02-25T22:12:31.891Z,96835.20
2023-02-25T22:15:35.498Z,96837.95
2023-02-25T22:18:39.536Z,96839.51
2023-02-25T22:21:42.800Z,96835.70
2023-02-25T22:24:46.152Z,96837.63
2023-02-25T22:27:49.544Z,96840.11
2023-02-25T22:30:52.853Z,96835.67
2023-02-25T22:33:57.203Z,96836.30
2023-02-25T22:37:00.463Z,96837.46
2023-02-25T22:40:04.153Z,96840.86
2023-02-25T22:43:07.389Z,96846.30
2023-02-25T22:46:16.412Z,96850.86
2023-02-25T22:49:19.810Z,96855.66
2023-02-25T22:52:23.088Z,96866.42
2023-02-25T22:55:26.287Z,96872.95
2023-02-25T22:58:30.222Z,96876.92
2023-02-25T23:01:33.560Z,96886.08
2023-02-25T23:04:36.862Z,96889.13
2023-02-25T23:07:42.319Z,96895.08
2023-02-25T23:10:45.626Z,96899.56
2023-02-25T23:13:52.435Z,96901.60
2023-02-25T23:16:55.938Z,96907.33
2023-02-25T23:20:00.348Z,96912.98
2023-02-25T23:23:05.153Z,96918.31
2023-02-25T23:26:12.269Z,96925.67
2023-02-25T23:29:15.544Z,96930.33
2023-02-25T23:32:18.811Z,96936.48
2023-02-25T23:35:22.056Z,96938.58
2023-02-25T23:38:25.740Z,96939.74
2023-02-25T23:41:30.140Z,96944.73
2023-02-25T23:44:33.469Z,96945.66
2023-02-25T23:47:38.416Z,96952.48
2023-02-25T23:50:41.656Z,96955.23
2023-02-25T23:53:44.903Z,96960.52
2023-02-25T23:56:49.336Z,96965.64
2023-02-25T23:59:52.784Z,96965.93
